createdAt,value
2018-06-27T00:01:24.356Z,5.58
2018-06-27T00:03:58.388Z,5.63
2018-06-27T00:06:32.144Z,6.10
2018-06-27T00:09:06.327Z,5.37
2018-06-27T00:11:40.204Z,4.80
2018-06-27T00:14:14.279Z,5.07
2018-06-27T00:16:48.122Z,5.13
2018-06-27T00:19:20.534Z,5.27
2018-06-27T00:21:54.370Z,5.00
2018-06-27T00:24:28.579Z,5.20
2018-06-27T00:27:02.741Z,5.55
2018-06-27T00:29:38.117Z,5.67
2018-06-27T00:32:12.312Z,5.27
2018-06-27T00:34:46.372Z,5.30
2018-06-27T00:37:20.231Z,5.63
2018-06-27T00:39:54.758Z,5.10
2018-06-27T00:42:28.668Z,4.80
2018-06-27T00:45:02.968Z,4.40
2018-06-27T00:47:36.969Z,4.30
2018-06-27T00:50:11.333Z,3.03
2018-06-27T00:52:46.150Z,3.20
2018-06-27T00:55:20.396Z,3.33
2018-06-27T00:57:54.390Z,3.57
2018-06-27T01:00:29.362Z,3.50
2018-06-27T01:03:03.359Z,2.70
2018-06-27T01:05:37.583Z,2.47
2018-06-27T01:08:11.409Z,1.80
2018-06-27T01:10:45.282Z,1.10
2018-06-27T01:13:19.126Z,1.00
2018-06-27T01:15:52.926Z,1.00
2018-06-27T01:18:26.674Z,0.93
2018-06-27T01:21:00.940Z,0.80
2018-06-27T01:23:35.537Z,0.77
2018-06-27T01:26:09.916Z,0.90
2018-06-27T01:28:43.795Z,0.70
2018-06-27T01:31:18.951Z,0.77
2018-06-27T01:33:53.011Z,0.80
2018-06-27T01:36:27.387Z,0.83
2018-06-27T01:39:01.233Z,0.80
2018-06-27T01:41:35.059Z,0.70
2018-06-27T01:44:08.877Z,0.90
2018-06-27T01:46:42.776Z,0.93
2018-06-27T01:49:16.631Z,0.63
2018-06-27T01:51:50.721Z,0.70
2018-06-27T01:54:23.040Z,0.80
2018-06-27T01:56:56.906Z,0.60
2018-06-27T01:59:29.158Z,0.70
2018-06-27T02:02:03.051Z,0.70
2018-06-27T02:04:36.871Z,1.00
2018-06-27T02:07:11.596Z,1.20
2018-06-27T02:09:45.611Z,0.80
2018-06-27T02:12:19.444Z,0.90
2018-06-27T02:14:51.960Z,0.90
2018-06-27T02:17:25.856Z,0.77
2018-06-27T02:20:01.462Z,0.60
2018-06-27T02:22:36.728Z,0.57
2018-06-27T02:25:09.228Z,0.93
2018-06-27T02:27:45.881Z,0.60
2018-06-27T02:30:56.232Z,0.60
2018-06-27T02:33:33.716Z,0.77
2018-06-27T02:36:07.820Z,0.50
2018-06-27T02:38:42.157Z,0.77
2018-06-27T02:41:15.289Z,0.70
2018-06-27T02:43:49.265Z,0.80
2018-06-27T02:46:23.252Z,0.80
2018-06-27T02:48:57.393Z,0.80
2018-06-27T02:51:31.566Z,0.63
2018-06-27T02:54:03.828Z,1.12
2018-06-27T02:56:37.341Z,1.00
2018-06-27T02:59:09.623Z,1.00
2018-06-27T03:01:43.050Z,1.20
2018-06-27T03:04:17.052Z,1.00
2018-06-27T03:06:54.071Z,1.33
2018-06-27T03:09:30.173Z,1.10
2018-06-27T03:12:03.563Z,1.20
2018-06-27T03:14:37.414Z,1.30
2018-06-27T03:17:11.551Z,1.10
2018-06-27T03:19:50.830Z,0.93
2018-06-27T03:22:23.648Z,0.60
2018-06-27T03:24:57.762Z,0.83
2018-06-27T03:27:32.557Z,1.03
2018-06-27T03:30:12.295Z,0.93
2018-06-27T03:32:47.336Z,0.70
2018-06-27T03:35:25.415Z,0.90
2018-06-27T03:37:59.486Z,1.00
2018-06-27T03:40:33.726Z,0.83
2018-06-27T03:43:07.466Z,0.80
2018-06-27T03:45:41.391Z,0.60
2018-06-27T03:48:15.892Z,0.80
2018-06-27T03:50:49.766Z,1.00
2018-06-27T03:53:23.551Z,1.00
2018-06-27T03:55:57.468Z,0.80
2018-06-27T03:58:31.197Z,0.80
2018-06-27T04:01:04.924Z,0.80
2018-06-27T04:03:39.036Z,0.77
2018-06-27T04:06:13.648Z,0.80
2018-06-27T04:08:47.523Z,0.70
2018-06-27T04:11:21.528Z,0.83
2018-06-27T04:13:55.504Z,0.70
2018-06-27T04:16:29.386Z,0.70
2018-06-27T04:19:03.335Z,0.80
2018-06-27T04:21:37.344Z,0.80
2018-06-27T04:24:12.737Z,0.90
2018-06-27T04:26:46.723Z,0.90
2018-06-27T04:29:21.519Z,1.10
2018-06-27T04:31:54.012Z,1.00
2018-06-27T04:34:28.401Z,1.30
2018-06-27T04:37:03.672Z,0.97
2018-06-27T04:39:37.820Z,1.17
2018-06-27T04:42:11.731Z,1.20
2018-06-27T04:44:45.156Z,1.10
2018-06-27T04:47:17.617Z,1.10
2018-06-27T04:49:51.253Z,0.93
2018-06-27T04:52:25.186Z,1.17
2018-06-27T04:54:59.291Z,0.90
2018-06-27T04:57:33.173Z,1.90
2018-06-27T05:00:05.533Z,2.77
2018-06-27T05:02:39.135Z,3.97
2018-06-27T05:05:13.090Z,10.83
2018-06-27T05:07:47.008Z,8.47
2018-06-27T05:10:21.115Z,5.40
2018-06-27T05:12:55.610Z,2.50
2018-06-27T05:15:28.091Z,1.90
2018-06-27T05:18:01.881Z,1.70
2018-06-27T05:20:35.960Z,1.50
2018-06-27T05:23:09.666Z,1.30
2018-06-27T05:25:43.564Z,1.40
2018-06-27T05:28:17.469Z,1.00
2018-06-27T05:30:52.310Z,1.00
2018-06-27T05:33:26.402Z,1.20
2018-06-27T05:36:01.378Z,3.73
2018-06-27T05:38:34.485Z,8.77
2018-06-27T05:41:08.126Z,4.53
2018-06-27T05:43:41.943Z,2.55
2018-06-27T05:46:16.176Z,2.63
2018-06-27T05:48:50.186Z,1.27
2018-06-27T05:51:24.320Z,1.33
2018-06-27T06:28:47.963Z,1.10
2018-06-27T06:31:21.918Z,4.90
2018-06-27T06:33:57.414Z,2.43
2018-06-27T06:36:31.212Z,1.60
2018-06-27T06:39:06.977Z,1.50
2018-06-27T06:41:41.027Z,1.30
2018-06-27T06:44:15.200Z,1.57
2018-06-27T06:46:49.423Z,2.20
2018-06-27T06:49:23.106Z,1.70
2018-06-27T06:51:56.942Z,1.22
2018-06-27T06:54:32.734Z,1.50
2018-06-27T06:57:06.506Z,0.98
2018-06-27T06:59:40.296Z,1.10
2018-06-27T07:02:14.219Z,0.80
2018-06-27T07:04:48.182Z,1.30
2018-06-27T07:07:23.002Z,1.30
2018-06-27T07:09:57.033Z,1.20
2018-06-27T07:12:30.800Z,0.80
2018-06-27T07:15:03.203Z,2.40
2018-06-27T07:17:38.285Z,2.40
2018-06-27T07:20:12.573Z,2.58
2018-06-27T07:22:46.439Z,2.30
2018-06-27T07:25:20.832Z,2.53
2018-06-27T07:27:55.333Z,1.80
2018-06-27T07:30:30.104Z,1.47
2018-06-27T07:33:04.223Z,1.20
2018-06-27T07:35:38.476Z,1.30
2018-06-27T07:38:12.570Z,1.40
2018-06-27T07:40:57.315Z,1.32
2018-06-27T07:43:38.508Z,1.60
2018-06-27T07:46:12.593Z,2.10
2018-06-27T07:48:46.561Z,2.40
2018-06-27T07:51:20.556Z,2.97
2018-06-27T07:53:54.698Z,2.40
2018-06-27T07:56:28.773Z,2.20
2018-06-27T07:59:02.731Z,1.77
2018-06-27T08:01:37.174Z,2.35
2018-06-27T08:04:11.122Z,1.60
2018-06-27T08:06:49.379Z,1.87
2018-06-27T08:09:24.520Z,2.40
2018-06-27T08:11:58.356Z,1.80
2018-06-27T08:14:32.413Z,1.87
2018-06-27T08:17:06.241Z,1.87
2018-06-27T08:19:40.190Z,1.87
2018-06-27T08:22:14.527Z,2.20
2018-06-27T08:24:48.320Z,2.05
2018-06-27T08:27:24.131Z,1.97
2018-06-27T08:29:56.703Z,2.40
2018-06-27T08:35:03.854Z,2.60
2018-06-27T08:37:37.662Z,2.33
2018-06-27T08:40:12.123Z,3.00
2018-06-27T08:42:47.106Z,2.57
2018-06-27T08:45:21.481Z,2.22
2018-06-27T08:47:55.452Z,2.55
2018-06-27T08:50:28.937Z,2.20
2018-06-27T08:53:02.773Z,2.10
2018-06-27T08:55:36.322Z,2.10
2018-06-27T08:58:10.680Z,1.87
2018-06-27T09:00:44.817Z,1.87
2018-06-27T09:03:19.793Z,1.93
2018-06-27T09:05:53.911Z,2.40
2018-06-27T09:08:27.895Z,1.70
2018-06-27T09:11:02.057Z,1.90
2018-06-27T09:13:36.021Z,1.90
2018-06-27T09:16:12.154Z,2.10
2018-06-27T09:18:45.738Z,1.90
2018-06-27T09:21:20.392Z,2.03
2018-06-27T09:23:54.167Z,1.70
2018-06-27T09:26:28.937Z,2.03
2018-06-27T09:29:03.171Z,1.80
2018-06-27T09:31:36.954Z,1.70
2018-06-27T09:34:10.872Z,2.20
2018-06-27T09:36:45.521Z,1.70
2018-06-27T09:39:19.573Z,2.05
2018-06-27T09:41:54.843Z,2.30
2018-06-27T09:44:31.131Z,2.90
2018-06-27T09:47:03.141Z,2.63
2018-06-27T09:49:37.176Z,2.30
2018-06-27T09:52:11.317Z,1.90
2018-06-27T09:54:45.577Z,2.07
2018-06-27T09:57:19.502Z,2.12
2018-06-27T09:59:53.201Z,2.60
2018-06-27T10:02:27.483Z,2.33
2018-06-27T10:05:01.451Z,2.80
2018-06-27T10:07:35.362Z,2.90
2018-06-27T10:10:09.178Z,2.87
2018-06-27T10:12:43.371Z,2.83
2018-06-27T10:15:17.860Z,2.63
2018-06-27T10:17:52.075Z,2.70
2018-06-27T10:20:25.904Z,2.83
2018-06-27T10:23:00.119Z,2.67
2018-06-27T10:25:35.071Z,3.03
2018-06-27T10:28:08.946Z,2.70
2018-06-27T10:30:41.247Z,2.30
2018-06-27T10:33:17.116Z,2.67
2018-06-27T10:35:51.250Z,2.50
2018-06-27T10:38:25.895Z,2.37
2018-06-27T10:40:58.132Z,2.40
2018-06-27T10:43:32.628Z,2.40
2018-06-27T10:46:08.186Z,2.57
2018-06-27T10:48:42.347Z,2.30
2018-06-27T10:51:16.100Z,2.37
2018-06-27T10:53:50.186Z,3.23
2018-06-27T10:56:25.257Z,4.13
2018-06-27T10:58:59.260Z,3.50
2018-06-27T11:01:33.106Z,3.90
2018-06-27T11:04:07.011Z,3.67
2018-06-27T11:06:40.744Z,2.93
2018-06-27T11:09:13.574Z,3.10
2018-06-27T11:11:48.807Z,3.33
2018-06-27T11:14:24.519Z,3.62
2018-06-27T11:16:58.735Z,3.83
2018-06-27T11:19:34.119Z,3.37
2018-06-27T11:22:09.467Z,3.43
2018-06-27T11:24:44.116Z,3.93
2018-06-27T11:27:18.457Z,3.77
2018-06-27T11:29:52.069Z,2.80
2018-06-27T11:32:25.523Z,3.07
2018-06-27T11:35:00.875Z,2.70
2018-06-27T11:37:32.924Z,3.55
2018-06-27T11:40:06.845Z,3.50
2018-06-27T11:42:41.401Z,3.80
2018-06-27T11:45:13.755Z,3.65
2018-06-27T11:47:48.191Z,3.93
2018-06-27T11:50:22.364Z,3.67
2018-06-27T11:52:56.330Z,4.83
2018-06-27T11:55:30.355Z,4.03
2018-06-27T11:58:04.522Z,3.42
2018-06-27T12:00:38.359Z,3.30
2018-06-27T12:03:12.274Z,3.25
2018-06-27T12:05:44.692Z,3.10
2018-06-27T12:08:18.604Z,3.27
2018-06-27T12:10:52.821Z,3.13
2018-06-27T12:13:26.975Z,3.33
2018-06-27T12:16:00.739Z,4.60
2018-06-27T12:18:34.744Z,3.87
2018-06-27T12:21:08.781Z,4.10
2018-06-27T12:23:42.662Z,4.13
2018-06-27T12:26:16.232Z,4.33
2018-06-27T12:28:50.152Z,3.57
2018-06-27T12:31:23.752Z,3.80
2018-06-27T12:33:57.843Z,4.03
2018-06-27T12:36:31.922Z,3.30
2018-06-27T12:39:06.073Z,3.20
2018-06-27T12:41:40.196Z,3.07
2018-06-27T12:44:14.217Z,3.63
2018-06-27T12:46:48.435Z,3.73
2018-06-27T12:49:24.400Z,3.50
2018-06-27T12:51:58.466Z,3.10
2018-06-27T12:54:32.168Z,2.47
2018-06-27T12:57:06.206Z,2.93
2018-06-27T12:59:38.339Z,2.60
2018-06-27T13:02:12.313Z,2.63
2018-06-27T13:04:46.384Z,2.53
2018-06-27T13:07:20.603Z,2.63
2018-06-27T13:09:54.061Z,2.57
2018-06-27T13:12:29.160Z,2.73
2018-06-27T13:15:03.109Z,2.53
2018-06-27T13:17:37.167Z,3.23
2018-06-27T13:20:11.740Z,2.53
2018-06-27T13:22:45.843Z,2.40
2018-06-27T13:25:20.181Z,2.30
2018-06-27T13:27:54.396Z,2.20
2018-06-27T13:30:28.406Z,2.33
2018-06-27T13:33:02.087Z,2.20
2018-06-27T13:35:36.437Z,2.33
2018-06-27T13:38:40.567Z,2.90
2018-06-27T13:41:15.373Z,2.83
2018-06-27T13:43:49.417Z,2.77
2018-06-27T13:46:21.702Z,3.03
2018-06-27T13:48:55.896Z,2.83
2018-06-27T13:51:31.589Z,3.30
2018-06-27T13:54:05.758Z,3.03
2018-06-27T13:56:38.043Z,2.52
2018-06-27T13:59:11.221Z,2.72
2018-06-27T14:01:46.038Z,2.70
2018-06-27T14:04:19.889Z,2.87
2018-06-27T14:06:53.691Z,3.63
2018-06-27T14:09:27.679Z,2.90
2018-06-27T14:12:00.256Z,3.20
2018-06-27T14:14:35.438Z,2.90
2018-06-27T14:17:09.364Z,3.13
2018-06-27T14:19:43.714Z,3.17
2018-06-27T14:22:16.003Z,2.70
2018-06-27T14:24:48.168Z,2.60
2018-06-27T14:27:20.701Z,2.57
2018-06-27T14:29:54.598Z,2.77
2018-06-27T14:32:27.984Z,2.67
2018-06-27T14:35:01.859Z,3.30
2018-06-27T14:37:34.171Z,2.90
2018-06-27T14:40:08.083Z,3.00
2018-06-27T14:42:42.281Z,2.90
2018-06-27T15:21:02.789Z,2.97
2018-06-27T15:23:36.807Z,2.07
2018-06-27T15:34:36.130Z,2.40
2018-06-27T15:37:08.564Z,2.03
2018-06-27T15:39:44.496Z,2.90
2018-06-27T15:42:18.503Z,2.60
2018-06-27T15:44:54.885Z,2.50
2018-06-27T15:47:29.414Z,2.83
2018-06-27T15:50:03.473Z,2.73
2018-06-27T15:52:38.086Z,3.33
2018-06-27T15:55:12.116Z,3.73
2018-06-27T15:57:47.711Z,2.90
2018-06-27T16:00:22.061Z,2.83
2018-06-27T16:02:57.469Z,2.83
2018-06-27T16:05:32.214Z,3.40
2018-06-27T16:08:06.607Z,3.20
2018-06-27T16:10:41.449Z,3.33
2018-06-27T16:13:15.361Z,3.53
2018-06-27T16:15:49.596Z,3.67
2018-06-27T16:18:23.366Z,3.95
2018-06-27T16:20:57.518Z,3.63
2018-06-27T16:23:31.507Z,3.87
2018-06-27T16:26:05.873Z,3.97
2018-06-27T16:28:40.896Z,3.57
2018-06-27T16:31:15.005Z,4.17
2018-06-27T16:33:48.893Z,3.93
2018-06-27T16:36:23.340Z,3.63
2018-06-27T16:38:57.523Z,3.57
2018-06-27T16:41:32.158Z,3.40
2018-06-27T16:44:06.492Z,2.85
2018-06-27T16:46:40.699Z,3.30
2018-06-27T16:49:15.214Z,3.53
2018-06-27T16:51:50.669Z,3.60
2018-06-27T16:54:24.960Z,3.00
2018-06-27T16:56:59.165Z,3.50
2018-06-27T16:59:33.154Z,3.87
2018-06-27T17:02:07.851Z,3.20
2018-06-27T17:04:42.019Z,3.23
2018-06-27T17:07:15.941Z,3.13
2018-06-27T17:09:49.954Z,3.30
2018-06-27T17:12:25.033Z,3.20
2018-06-27T17:14:59.207Z,3.30
2018-06-27T17:17:33.503Z,3.33
2018-06-27T17:20:08.210Z,3.50
2018-06-27T17:22:40.882Z,3.53
2018-06-27T17:25:15.149Z,3.30
2018-06-27T17:27:49.621Z,2.83
2018-06-27T17:30:23.581Z,3.30
2018-06-27T17:32:57.880Z,2.80
2018-06-27T17:35:31.811Z,3.63
2018-06-27T17:38:05.827Z,3.20
2018-06-27T17:40:40.375Z,3.30
2018-06-27T17:43:14.650Z,3.20
2018-06-27T17:45:48.619Z,4.00
2018-06-27T17:48:22.972Z,3.03
2018-06-27T17:50:55.353Z,3.23
2018-06-27T17:53:28.069Z,3.20
2018-06-27T17:56:02.615Z,2.90
2018-06-27T17:58:36.409Z,2.80
2018-06-27T18:01:10.770Z,2.80
2018-06-27T18:03:43.776Z,2.60
2018-06-27T18:06:17.990Z,3.40
2018-06-27T18:08:52.112Z,3.20
2018-06-27T18:11:26.612Z,2.70
2018-06-27T18:14:01.448Z,3.07
2018-06-27T18:16:36.458Z,3.00
2018-06-27T18:19:10.502Z,3.47
2018-06-27T18:21:44.881Z,3.08
2018-06-27T18:24:18.792Z,2.87
2018-06-27T18:26:52.984Z,2.57
2018-06-27T18:29:27.460Z,2.65
2018-06-27T18:32:01.642Z,2.80
2018-06-27T18:34:35.939Z,2.97
2018-06-27T18:37:10.404Z,2.67
2018-06-27T18:39:44.694Z,3.20
2018-06-27T18:42:18.585Z,2.90
2018-06-27T18:44:52.720Z,2.83
2018-06-27T18:47:27.169Z,2.83
2018-06-27T18:49:59.504Z,2.70
2018-06-27T18:52:33.811Z,3.03
2018-06-27T18:55:08.229Z,3.00
2018-06-27T18:57:42.038Z,3.20
2018-06-27T19:00:16.484Z,3.23
2018-06-27T19:02:50.686Z,3.23
2018-06-27T19:05:28.737Z,3.27
2018-06-27T19:08:03.108Z,3.20
2018-06-27T19:10:37.278Z,3.60
2018-06-27T19:13:11.916Z,3.37
2018-06-27T19:15:47.634Z,3.83
2018-06-27T19:18:22.078Z,3.30
2018-06-27T19:20:56.149Z,2.80
2018-06-27T19:23:29.027Z,2.93
2018-06-27T19:26:02.779Z,3.10
2018-06-27T19:28:37.139Z,2.77
2018-06-27T19:31:11.319Z,3.13
2018-06-27T19:33:45.956Z,2.90
2018-06-27T19:36:20.109Z,3.00
2018-06-27T19:38:54.360Z,2.77
2018-06-27T19:41:26.695Z,2.80
2018-06-27T19:44:00.852Z,3.05
2018-06-27T19:46:35.426Z,3.37
2018-06-27T19:49:09.573Z,3.00
2018-06-27T19:51:44.294Z,3.30
2018-06-27T19:54:18.695Z,2.77
2018-06-27T19:56:53.169Z,2.73
2018-06-27T19:59:27.200Z,3.57
2018-06-27T20:02:01.981Z,3.80
2018-06-27T20:04:36.321Z,3.92
2018-06-27T20:07:11.117Z,3.80
2018-06-27T20:09:45.488Z,3.53
2018-06-27T20:12:20.705Z,3.17
2018-06-27T20:14:55.054Z,3.30
2018-06-27T20:28:51.099Z,2.90
2018-06-27T20:31:25.308Z,2.45
2018-06-27T20:34:00.337Z,3.17
2018-06-27T20:36:33.291Z,3.30
2018-06-27T20:39:07.441Z,3.22
2018-06-27T20:41:40.740Z,2.90
2018-06-27T20:44:14.956Z,2.97
2018-06-27T20:46:47.647Z,2.90
2018-06-27T20:49:22.986Z,2.70
2018-06-27T20:51:57.994Z,3.50
2018-06-27T20:54:32.912Z,3.33
2018-06-27T20:57:07.889Z,3.10
2018-06-27T20:59:42.641Z,2.87
2018-06-27T21:02:21.346Z,3.83
2018-06-27T21:04:55.685Z,3.27
2018-06-27T21:07:29.973Z,3.17
2018-06-27T21:10:04.529Z,3.13
2018-06-27T21:12:38.677Z,2.93
2018-06-27T21:15:12.976Z,3.20
2018-06-27T21:17:46.773Z,3.27
2018-06-27T21:20:21.898Z,3.37
2018-06-27T21:22:56.634Z,2.73
2018-06-27T21:25:30.410Z,2.87
2018-06-27T21:28:04.169Z,2.73
2018-06-27T21:30:38.787Z,3.10
2018-06-27T21:33:13.751Z,3.23
2018-06-27T21:35:48.459Z,4.20
2018-06-27T21:38:22.640Z,4.00
2018-06-27T21:40:56.922Z,3.63
2018-06-27T21:43:31.492Z,3.53
2018-06-27T21:46:05.940Z,3.77
2018-06-27T21:48:40.970Z,3.80
2018-06-27T21:51:15.413Z,3.33
2018-06-27T21:53:50.967Z,3.80
2018-06-27T21:56:24.923Z,3.77
2018-06-27T21:59:00.193Z,3.50
2018-06-27T22:01:34.261Z,3.67
2018-06-27T22:04:08.474Z,3.63
2018-06-27T22:06:42.751Z,3.83
2018-06-27T22:09:15.754Z,5.03
2018-06-27T22:11:49.965Z,4.77
2018-06-27T22:14:24.882Z,4.83
2018-06-27T22:16:57.329Z,4.67
2018-06-27T22:19:31.741Z,4.33
2018-06-27T22:22:06.544Z,4.47
2018-06-27T22:24:40.779Z,4.77
2018-06-27T22:27:14.990Z,4.17
2018-06-27T22:29:49.055Z,4.40
2018-06-27T22:32:24.025Z,4.13
2018-06-27T22:34:58.592Z,4.10
2018-06-27T22:37:33.228Z,3.47
2018-06-27T22:40:07.390Z,3.67
2018-06-27T22:42:42.566Z,4.00
2018-06-27T22:45:16.793Z,3.98
2018-06-27T22:47:51.323Z,3.80
2018-06-27T22:50:25.329Z,3.70
2018-06-27T22:52:59.321Z,3.73
2018-06-27T22:55:33.461Z,3.70
2018-06-27T22:58:06.042Z,3.70
2018-06-27T23:00:40.184Z,4.12
2018-06-27T23:03:12.767Z,3.63
2018-06-27T23:05:46.461Z,3.90
2018-06-27T23:08:20.785Z,3.57
2018-06-27T23:10:53.300Z,3.60
2018-06-27T23:13:27.251Z,3.67
2018-06-27T23:15:59.797Z,3.90
2018-06-27T23:18:34.198Z,3.63
2018-06-27T23:21:08.173Z,3.30
2018-06-27T23:23:42.731Z,3.70
2018-06-27T23:26:16.843Z,3.67
2018-06-27T23:28:51.386Z,3.90
2018-06-27T23:31:25.526Z,3.90
2018-06-27T23:34:00.552Z,3.20
2018-06-27T23:36:35.034Z,3.73
2018-06-27T23:39:12.276Z,3.93
2018-06-27T23:41:46.971Z,3.87
2018-06-27T23:44:21.123Z,3.70
2018-06-27T23:46:54.160Z,3.52
2018-06-27T23:49:28.607Z,3.50
2018-06-27T23:52:02.932Z,3.80
2018-06-27T23:54:36.977Z,3.87
2018-06-27T23:57:09.559Z,3.33
2018-06-27T23:59:44.255Z,4.00
